sensor_id;sensor_type;location;lat;lon;timestamp;P1;durP1;ratioP1;P2;durP2;ratioP2
63943;SDS011;50121;51.218;7.664;2024-03-29T00:00:02;5.70;;;5.30;;
63943;SDS011;50121;51.218;7.664;2024-03-29T00:02:39;7.45;;;5.40;;
63943;SDS011;50121;51.218;7.664;2024-03-29T00:05:05;5.65;;;5.25;;
63943;SDS011;50121;51.218;7.664;2024-03-29T00:07:33;5.40;;;5.10;;
63943;SDS011;50121;51.218;7.664;2024-03-29T00:09:59;5.10;;;4.75;;
63943;SDS011;50121;51.218;7.664;2024-03-29T00:12:26;5.10;;;4.60;;
63943;SDS011;50121;51.218;7.664;2024-03-29T00:14:53;5.10;;;4.70;;
63943;SDS011;50121;51.218;7.664;2024-03-29T00:17:21;5.70;;;5.30;;
63943;SDS011;50121;51.218;7.664;2024-03-29T00:19:48;5.22;;;4.80;;
63943;SDS011;50121;51.218;7.664;2024-03-29T00:22:15;5.40;;;4.95;;
63943;SDS011;50121;51.218;7.664;2024-03-29T00:24:42;5.65;;;5.10;;
63943;SDS011;50121;51.218;7.664;2024-03-29T00:27:09;5.72;;;5.38;;
63943;SDS011;50121;51.218;7.664;2024-03-29T00:29:35;5.63;;;5.20;;
63943;SDS011;50121;51.218;7.664;2024-03-29T00:32:02;5.70;;;5.40;;
63943;SDS011;50121;51.218;7.664;2024-03-29T00:34:29;5.80;;;5.40;;
63943;SDS011;50121;51.218;7.664;2024-03-29T00:36:56;5.20;;;4.80;;
63943;SDS011;50121;51.218;7.664;2024-03-29T00:39:23;5.32;;;4.82;;
63943;SDS011;50121;51.218;7.664;2024-03-29T00:41:50;6.15;;;5.05;;
63943;SDS011;50121;51.218;7.664;2024-03-29T00:44:16;5.07;;;4.72;;
63943;SDS011;50121;51.218;7.664;2024-03-29T00:46:43;5.15;;;4.75;;
63943;SDS011;50121;51.218;7.664;2024-03-29T00:49:10;5.47;;;5.00;;
63943;SDS011;50121;51.218;7.664;2024-03-29T00:51:37;5.60;;;5.25;;
63943;SDS011;50121;51.218;7.664;2024-03-29T00:54:05;6.40;;;5.82;;
63943;SDS011;50121;51.218;7.664;2024-03-29T00:56:32;6.00;;;5.50;;
63943;SDS011;50121;51.218;7.664;2024-03-29T00:58:59;6.40;;;6.00;;
63943;SDS011;50121;51.218;7.664;2024-03-29T01:01:26;5.30;;;5.00;;
63943;SDS011;50121;51.218;7.664;2024-03-29T01:03:53;5.30;;;5.00;;
63943;SDS011;50121;51.218;7.664;2024-03-29T01:06:19;5.32;;;4.95;;
63943;SDS011;50121;51.218;7.664;2024-03-29T01:08:46;5.50;;;5.00;;
63943;SDS011;50121;51.218;7.664;2024-03-29T01:11:13;5.45;;;5.03;;
63943;SDS011;50121;51.218;7.664;2024-03-29T01:13:40;5.55;;;5.20;;
63943;SDS011;50121;51.218;7.664;2024-03-29T01:16:07;5.43;;;5.00;;
63943;SDS011;50121;51.218;7.664;2024-03-29T01:18:34;5.10;;;4.70;;
63943;SDS011;50121;51.218;7.664;2024-03-29T01:21:01;5.75;;;5.35;;
63943;SDS011;50121;51.218;7.664;2024-03-29T01:23:28;5.47;;;5.07;;
63943;SDS011;50121;51.218;7.664;2024-03-29T01:25:54;5.10;;;4.72;;
63943;SDS011;50121;51.218;7.664;2024-03-29T01:28:21;5.20;;;4.90;;
63943;SDS011;50121;51.218;7.664;2024-03-29T01:30:52;5.53;;;5.13;;
63943;SDS011;50121;51.218;7.664;2024-03-29T01:33:19;5.82;;;5.32;;
63943;SDS011;50121;51.218;7.664;2024-03-29T01:35:46;5.78;;;5.28;;
63943;SDS011;50121;51.218;7.664;2024-03-29T01:38:14;5.10;;;4.70;;
63943;SDS011;50121;51.218;7.664;2024-03-29T01:40:41;5.75;;;4.90;;
63943;SDS011;50121;51.218;7.664;2024-03-29T01:43:08;4.97;;;4.57;;
63943;SDS011;50121;51.218;7.664;2024-03-29T01:45:36;5.22;;;4.90;;
63943;SDS011;50121;51.218;7.664;2024-03-29T01:48:05;5.13;;;4.63;;
63943;SDS011;50121;51.218;7.664;2024-03-29T01:50:32;5.28;;;4.75;;
63943;SDS011;50121;51.218;7.664;2024-03-29T01:53:00;5.82;;;5.53;;
63943;SDS011;50121;51.218;7.664;2024-03-29T01:55:27;5.05;;;4.75;;
63943;SDS011;50121;51.218;7.664;2024-03-29T01:57:56;5.40;;;5.10;;
63943;SDS011;50121;51.218;7.664;2024-03-29T02:00:23;5.20;;;4.80;;
63943;SDS011;50121;51.218;7.664;2024-03-29T02:02:51;5.60;;;5.20;;
63943;SDS011;50121;51.218;7.664;2024-03-29T02:05:18;5.53;;;4.90;;
63943;SDS011;50121;51.218;7.664;2024-03-29T02:07:46;5.15;;;4.75;;
63943;SDS011;50121;51.218;7.664;2024-03-29T02:10:14;5.68;;;5.18;;
63943;SDS011;50121;51.218;7.664;2024-03-29T02:12:41;5.45;;;4.97;;
63943;SDS011;50121;51.218;7.664;2024-03-29T02:15:08;5.50;;;5.07;;
63943;SDS011;50121;51.218;7.664;2024-03-29T02:17:35;5.78;;;5.30;;
63943;SDS011;50121;51.218;7.664;2024-03-29T02:20:02;5.82;;;5.32;;
63943;SDS011;50121;51.218;7.664;2024-03-29T02:22:28;5.55;;;5.15;;
63943;SDS011;50121;51.218;7.664;2024-03-29T02:24:57;5.22;;;4.80;;
63943;SDS011;50121;51.218;7.664;2024-03-29T02:27:23;5.80;;;5.40;;
63943;SDS011;50121;51.218;7.664;2024-03-29T02:29:50;5.20;;;4.90;;
63943;SDS011;50121;51.218;7.664;2024-03-29T02:32:18;5.53;;;5.22;;
63943;SDS011;50121;51.218;7.664;2024-03-29T02:34:45;6.07;;;5.53;;
63943;SDS011;50121;51.218;7.664;2024-03-29T02:37:12;5.45;;;4.80;;
63943;SDS011;50121;51.218;7.664;2024-03-29T02:39:38;4.95;;;4.57;;
63943;SDS011;50121;51.218;7.664;2024-03-29T02:42:05;5.70;;;5.30;;
63943;SDS011;50121;51.218;7.664;2024-03-29T02:44:32;6.07;;;5.50;;
63943;SDS011;50121;51.218;7.664;2024-03-29T02:46:59;5.43;;;4.80;;
63943;SDS011;50121;51.218;7.664;2024-03-29T02:49:26;5.82;;;5.10;;
63943;SDS011;50121;51.218;7.664;2024-03-29T02:51:53;5.68;;;5.28;;
63943;SDS011;50121;51.218;7.664;2024-03-29T02:54:20;5.30;;;4.90;;
63943;SDS011;50121;51.218;7.664;2024-03-29T02:56:47;5.63;;;5.30;;
63943;SDS011;50121;51.218;7.664;2024-03-29T02:59:14;5.90;;;5.60;;
63943;SDS011;50121;51.218;7.664;2024-03-29T03:01:41;6.43;;;6.00;;
63943;SDS011;50121;51.218;7.664;2024-03-29T03:04:07;5.90;;;5.50;;
63943;SDS011;50121;51.218;7.664;2024-03-29T03:06:34;5.72;;;5.32;;
63943;SDS011;50121;51.218;7.664;2024-03-29T03:09:01;6.22;;;5.80;;
63943;SDS011;50121;51.218;7.664;2024-03-29T03:11:46;6.00;;;5.53;;
63943;SDS011;50121;51.218;7.664;2024-03-29T03:14:13;5.40;;;5.10;;
63943;SDS011;50121;51.218;7.664;2024-03-29T03:16:40;5.35;;;5.05;;
63943;SDS011;50121;51.218;7.664;2024-03-29T03:19:07;5.40;;;5.10;;
63943;SDS011;50121;51.218;7.664;2024-03-29T03:21:35;5.68;;;5.22;;
63943;SDS011;50121;51.218;7.664;2024-03-29T03:24:01;5.03;;;4.72;;
63943;SDS011;50121;51.218;7.664;2024-03-29T03:26:30;6.10;;;5.70;;
63943;SDS011;50121;51.218;7.664;2024-03-29T03:28:57;5.68;;;5.32;;
63943;SDS011;50121;51.218;7.664;2024-03-29T03:31:23;5.43;;;5.10;;
63943;SDS011;50121;51.218;7.664;2024-03-29T03:33:50;7.07;;;5.93;;
63943;SDS011;50121;51.218;7.664;2024-03-29T03:36:17;6.00;;;5.60;;
63943;SDS011;50121;51.218;7.664;2024-03-29T03:38:44;6.03;;;5.40;;
63943;SDS011;50121;51.218;7.664;2024-03-29T03:41:10;5.53;;;5.10;;
63943;SDS011;50121;51.218;7.664;2024-03-29T03:43:38;5.72;;;5.43;;
63943;SDS011;50121;51.218;7.664;2024-03-29T03:46:05;5.70;;;5.30;;
63943;SDS011;50121;51.218;7.664;2024-03-29T03:48:32;6.20;;;5.65;;
63943;SDS011;50121;51.218;7.664;2024-03-29T03:50:59;6.45;;;5.95;;
63943;SDS011;50121;51.218;7.664;2024-03-29T03:53:25;6.00;;;5.47;;
63943;SDS011;50121;51.218;7.664;2024-03-29T03:55:53;6.18;;;5.63;;
63943;SDS011;50121;51.218;7.664;2024-03-29T03:58:21;5.82;;;5.50;;
63943;SDS011;50121;51.218;7.664;2024-03-29T04:00:48;5.60;;;5.22;;
63943;SDS011;50121;51.218;7.664;2024-03-29T04:03:15;6.60;;;6.10;;
63943;SDS011;50121;51.218;7.664;2024-03-29T04:05:42;6.20;;;5.70;;
63943;SDS011;50121;51.218;7.664;2024-03-29T04:08:09;6.28;;;5.25;;
63943;SDS011;50121;51.218;7.664;2024-03-29T04:10:38;5.93;;;5.30;;
63943;SDS011;50121;51.218;7.664;2024-03-29T04:13:05;6.63;;;5.88;;
63943;SDS011;50121;51.218;7.664;2024-03-29T04:15:32;5.93;;;5.13;;
63943;SDS011;50121;51.218;7.664;2024-03-29T04:17:59;5.65;;;5.28;;
63943;SDS011;50121;51.218;7.664;2024-03-29T04:20:26;6.00;;;5.50;;
63943;SDS011;50121;51.218;7.664;2024-03-29T04:22:53;6.30;;;5.80;;
63943;SDS011;50121;51.218;7.664;2024-03-29T04:25:20;6.18;;;5.75;;
63943;SDS011;50121;51.218;7.664;2024-03-29T04:27:47;6.28;;;5.72;;
63943;SDS011;50121;51.218;7.664;2024-03-29T04:30:14;5.82;;;5.38;;
63943;SDS011;50121;51.218;7.664;2024-03-29T04:32:41;5.72;;;5.25;;
63943;SDS011;50121;51.218;7.664;2024-03-29T04:35:08;5.63;;;5.20;;
63943;SDS011;50121;51.218;7.664;2024-03-29T04:37:35;5.60;;;5.30;;
63943;SDS011;50121;51.218;7.664;2024-03-29T04:40:02;5.93;;;5.47;;
63943;SDS011;50121;51.218;7.664;2024-03-29T04:42:29;6.32;;;5.60;;
63943;SDS011;50121;51.218;7.664;2024-03-29T04:44:56;6.20;;;5.70;;
63943;SDS011;50121;51.218;7.664;2024-03-29T04:47:23;5.50;;;5.10;;
63943;SDS011;50121;51.218;7.664;2024-03-29T04:49:50;5.90;;;5.50;;
63943;SDS011;50121;51.218;7.664;2024-03-29T04:52:16;5.88;;;5.20;;
63943;SDS011;50121;51.218;7.664;2024-03-29T04:54:43;5.15;;;4.80;;
63943;SDS011;50121;51.218;7.664;2024-03-29T04:57:10;5.40;;;4.90;;
63943;SDS011;50121;51.218;7.664;2024-03-29T04:59:38;5.90;;;5.30;;
63943;SDS011;50121;51.218;7.664;2024-03-29T05:02:05;4.82;;;4.43;;
63943;SDS011;50121;51.218;7.664;2024-03-29T05:04:32;5.30;;;4.90;;
63943;SDS011;50121;51.218;7.664;2024-03-29T05:06:59;4.95;;;4.65;;
63943;SDS011;50121;51.218;7.664;2024-03-29T05:09:25;5.30;;;4.70;;
63943;SDS011;50121;51.218;7.664;2024-03-29T05:11:52;5.32;;;4.80;;
63943;SDS011;50121;51.218;7.664;2024-03-29T05:14:20;4.97;;;4.47;;
63943;SDS011;50121;51.218;7.664;2024-03-29T05:16:48;5.50;;;4.93;;
63943;SDS011;50121;51.218;7.664;2024-03-29T05:19:15;5.95;;;4.72;;
63943;SDS011;50121;51.218;7.664;2024-03-29T05:21:42;4.97;;;4.47;;
63943;SDS011;50121;51.218;7.664;2024-03-29T05:24:09;6.00;;;4.70;;
63943;SDS011;50121;51.218;7.664;2024-03-29T05:26:37;5.47;;;4.95;;
63943;SDS011;50121;51.218;7.664;2024-03-29T05:29:04;5.15;;;4.75;;
63943;SDS011;50121;51.218;7.664;2024-03-29T05:31:33;4.95;;;4.30;;
63943;SDS011;50121;51.218;7.664;2024-03-29T05:34:00;4.70;;;4.40;;
63943;SDS011;50121;51.218;7.664;2024-03-29T05:36:27;4.70;;;4.40;;
63943;SDS011;50121;51.218;7.664;2024-03-29T05:38:54;5.60;;;4.60;;
63943;SDS011;50121;51.218;7.664;2024-03-29T05:41:21;5.03;;;4.20;;
63943;SDS011;50121;51.218;7.664;2024-03-29T05:43:48;5.68;;;4.32;;
63943;SDS011;50121;51.218;7.664;2024-03-29T05:46:15;5.00;;;4.50;;
63943;SDS011;50121;51.218;7.664;2024-03-29T05:48:43;4.90;;;4.40;;
63943;SDS011;50121;51.218;7.664;2024-03-29T05:51:09;4.60;;;4.13;;
63943;SDS011;50121;51.218;7.664;2024-03-29T05:53:36;5.53;;;4.20;;
63943;SDS011;50121;51.218;7.664;2024-03-29T05:56:03;6.53;;;4.05;;
63943;SDS011;50121;51.218;7.664;2024-03-29T05:58:29;5.35;;;4.57;;
63943;SDS011;50121;51.218;7.664;2024-03-29T06:00:56;4.68;;;4.10;;
63943;SDS011;50121;51.218;7.664;2024-03-29T06:03:23;4.40;;;4.10;;
63943;SDS011;50121;51.218;7.664;2024-03-29T06:05:50;4.85;;;4.15;;
63943;SDS011;50121;51.218;7.664;2024-03-29T06:08:18;4.18;;;3.88;;
63943;SDS011;50121;51.218;7.664;2024-03-29T06:10:46;4.20;;;3.90;;
63943;SDS011;50121;51.218;7.664;2024-03-29T06:13:13;4.28;;;3.88;;
63943;SDS011;50121;51.218;7.664;2024-03-29T06:16:09;4.85;;;3.75;;
63943;SDS011;50121;51.218;7.664;2024-03-29T06:18:55;5.20;;;3.90;;
63943;SDS011;50121;51.218;7.664;2024-03-29T06:21:21;4.72;;;3.85;;
63943;SDS011;50121;51.218;7.664;2024-03-29T06:23:48;4.10;;;3.70;;
63943;SDS011;50121;51.218;7.664;2024-03-29T06:26:15;4.35;;;3.95;;
63943;SDS011;50121;51.218;7.664;2024-03-29T06:28:42;4.10;;;3.78;;
63943;SDS011;50121;51.218;7.664;2024-03-29T06:31:09;4.05;;;3.67;;
63943;SDS011;50121;51.218;7.664;2024-03-29T06:33:36;4.00;;;3.50;;
63943;SDS011;50121;51.218;7.664;2024-03-29T06:36:02;4.18;;;3.67;;
63943;SDS011;50121;51.218;7.664;2024-03-29T06:38:29;3.90;;;3.60;;
63943;SDS011;50121;51.218;7.664;2024-03-29T06:40:56;3.75;;;3.45;;
63943;SDS011;50121;51.218;7.664;2024-03-29T06:43:23;3.90;;;3.60;;
63943;SDS011;50121;51.218;7.664;2024-03-29T06:45:50;3.95;;;3.65;;
63943;SDS011;50121;51.218;7.664;2024-03-29T06:48:17;6.00;;;3.80;;
63943;SDS011;50121;51.218;7.664;2024-03-29T06:50:44;3.78;;;3.50;;
63943;SDS011;50121;51.218;7.664;2024-03-29T06:53:10;5.97;;;5.40;;
63943;SDS011;50121;51.218;7.664;2024-03-29T06:55:37;3.72;;;3.40;;
63943;SDS011;50121;51.218;7.664;2024-03-29T06:58:04;3.92;;;3.55;;
63943;SDS011;50121;51.218;7.664;2024-03-29T07:00:31;4.88;;;4.22;;
63943;SDS011;50121;51.218;7.664;2024-03-29T07:02:58;6.10;;;3.90;;
63943;SDS011;50121;51.218;7.664;2024-03-29T07:05:25;4.00;;;3.70;;
63943;SDS011;50121;51.218;7.664;2024-03-29T07:07:52;4.07;;;3.78;;
63943;SDS011;50121;51.218;7.664;2024-03-29T07:10:20;5.03;;;4.53;;
63943;SDS011;50121;51.218;7.664;2024-03-29T07:12:47;5.25;;;4.80;;
63943;SDS011;50121;51.218;7.664;2024-03-29T07:15:14;5.45;;;4.95;;
63943;SDS011;50121;51.218;7.664;2024-03-29T07:17:41;4.97;;;4.50;;
63943;SDS011;50121;51.218;7.664;2024-03-29T07:20:09;5.00;;;4.15;;
63943;SDS011;50121;51.218;7.664;2024-03-29T07:22:37;4.63;;;3.72;;
63943;SDS011;50121;51.218;7.664;2024-03-29T07:25:04;3.72;;;3.53;;
63943;SDS011;50121;51.218;7.664;2024-03-29T07:27:33;3.90;;;3.50;;
63943;SDS011;50121;51.218;7.664;2024-03-29T07:30:02;3.95;;;3.55;;
63943;SDS011;50121;51.218;7.664;2024-03-29T07:32:30;3.78;;;3.30;;
63943;SDS011;50121;51.218;7.664;2024-03-29T07:34:57;6.25;;;5.05;;
63943;SDS011;50121;51.218;7.664;2024-03-29T07:37:25;3.90;;;3.55;;
63943;SDS011;50121;51.218;7.664;2024-03-29T07:39:52;4.65;;;4.20;;
63943;SDS011;50121;51.218;7.664;2024-03-29T07:42:19;4.32;;;3.80;;
63943;SDS011;50121;51.218;7.664;2024-03-29T07:44:46;6.93;;;5.75;;
63943;SDS011;50121;51.218;7.664;2024-03-29T07:47:12;5.78;;;4.68;;
63943;SDS011;50121;51.218;7.664;2024-03-29T07:49:40;10.38;;;6.88;;
63943;SDS011;50121;51.218;7.664;2024-03-29T07:52:07;5.07;;;4.22;;
63943;SDS011;50121;51.218;7.664;2024-03-29T07:54:35;10.10;;;7.68;;
63943;SDS011;50121;51.218;7.664;2024-03-29T07:57:02;9.48;;;7.85;;
63943;SDS011;50121;51.218;7.664;2024-03-29T07:59:31;5.70;;;5.13;;
63943;SDS011;50121;51.218;7.664;2024-03-29T08:01:58;4.80;;;4.40;;
63943;SDS011;50121;51.218;7.664;2024-03-29T08:04:25;4.80;;;4.40;;
63943;SDS011;50121;51.218;7.664;2024-03-29T08:06:52;4.00;;;3.70;;
63943;SDS011;50121;51.218;7.664;2024-03-29T08:09:19;4.13;;;3.60;;
63943;SDS011;50121;51.218;7.664;2024-03-29T08:11:45;3.80;;;3.30;;
63943;SDS011;50121;51.218;7.664;2024-03-29T08:14:12;3.50;;;3.30;;
63943;SDS011;50121;51.218;7.664;2024-03-29T08:16:39;3.70;;;3.50;;
63943;SDS011;50121;51.218;7.664;2024-03-29T08:19:06;3.80;;;3.50;;
63943;SDS011;50121;51.218;7.664;2024-03-29T08:21:33;3.92;;;3.63;;
63943;SDS011;50121;51.218;7.664;2024-03-29T08:24:00;4.38;;;4.03;;
63943;SDS011;50121;51.218;7.664;2024-03-29T08:26:28;4.25;;;3.70;;
63943;SDS011;50121;51.218;7.664;2024-03-29T08:28:55;4.20;;;3.90;;
63943;SDS011;50121;51.218;7.664;2024-03-29T08:31:22;4.65;;;3.70;;
63943;SDS011;50121;51.218;7.664;2024-03-29T08:33:49;4.15;;;3.83;;
63943;SDS011;50121;51.218;7.664;2024-03-29T08:36:15;3.85;;;3.60;;
63943;SDS011;50121;51.218;7.664;2024-03-29T08:38:42;3.85;;;3.55;;
63943;SDS011;50121;51.218;7.664;2024-03-29T08:41:12;4.40;;;4.10;;
63943;SDS011;50121;51.218;7.664;2024-03-29T08:43:39;4.47;;;4.07;;
63943;SDS011;50121;51.218;7.664;2024-03-29T08:46:06;4.05;;;3.75;;
63943;SDS011;50121;51.218;7.664;2024-03-29T08:48:34;4.10;;;3.70;;
63943;SDS011;50121;51.218;7.664;2024-03-29T08:51:03;3.90;;;3.60;;
63943;SDS011;50121;51.218;7.664;2024-03-29T08:53:30;3.90;;;3.60;;
63943;SDS011;50121;51.218;7.664;2024-03-29T08:55:57;6.32;;;5.40;;
63943;SDS011;50121;51.218;7.664;2024-03-29T08:58:24;4.20;;;3.80;;
63943;SDS011;50121;51.218;7.664;2024-03-29T09:00:55;3.53;;;3.33;;
63943;SDS011;50121;51.218;7.664;2024-03-29T09:03:22;4.10;;;3.80;;
63943;SDS011;50121;51.218;7.664;2024-03-29T09:05:51;3.88;;;3.58;;
63943;SDS011;50121;51.218;7.664;2024-03-29T09:08:18;3.88;;;3.58;;
63943;SDS011;50121;51.218;7.664;2024-03-29T09:10:45;3.60;;;3.30;;
63943;SDS011;50121;51.218;7.664;2024-03-29T09:13:13;4.18;;;3.75;;
63943;SDS011;50121;51.218;7.664;2024-03-29T09:15:39;3.63;;;3.28;;
63943;SDS011;50121;51.218;7.664;2024-03-29T09:18:06;4.05;;;3.70;;
63943;SDS011;50121;51.218;7.664;2024-03-29T09:20:43;5.03;;;3.80;;
63943;SDS011;50121;51.218;7.664;2024-03-29T09:23:11;3.80;;;3.50;;
63943;SDS011;50121;51.218;7.664;2024-03-29T09:25:41;3.63;;;3.42;;
63943;SDS011;50121;51.218;7.664;2024-03-29T09:28:08;3.60;;;3.40;;
63943;SDS011;50121;51.218;7.664;2024-03-29T09:30:36;3.63;;;3.35;;
63943;SDS011;50121;51.218;7.664;2024-03-29T09:33:02;3.70;;;3.50;;
63943;SDS011;50121;51.218;7.664;2024-03-29T09:35:32;3.70;;;3.50;;
63943;SDS011;50121;51.218;7.664;2024-03-29T09:37:59;4.35;;;3.83;;
63943;SDS011;50121;51.218;7.664;2024-03-29T09:40:26;3.95;;;3.70;;
63943;SDS011;50121;51.218;7.664;2024-03-29T09:42:56;4.00;;;3.80;;
63943;SDS011;50121;51.218;7.664;2024-03-29T09:45:31;3.20;;;3.00;;
63943;SDS011;50121;51.218;7.664;2024-03-29T09:48:04;3.90;;;3.60;;
63943;SDS011;50121;51.218;7.664;2024-03-29T09:50:31;3.90;;;3.60;;
63943;SDS011;50121;51.218;7.664;2024-03-29T09:52:59;3.95;;;3.70;;
63943;SDS011;50121;51.218;7.664;2024-03-29T09:55:26;4.45;;;3.88;;
63943;SDS011;50121;51.218;7.664;2024-03-29T09:57:54;4.28;;;3.90;;
63943;SDS011;50121;51.218;7.664;2024-03-29T10:00:23;5.90;;;5.30;;
63943;SDS011;50121;51.218;7.664;2024-03-29T10:02:51;4.68;;;4.28;;
63943;SDS011;50121;51.218;7.664;2024-03-29T10:05:19;6.68;;;3.78;;
63943;SDS011;50121;51.218;7.664;2024-03-29T10:07:47;4.00;;;3.70;;
63943;SDS011;50121;51.218;7.664;2024-03-29T10:10:14;4.15;;;3.72;;
63943;SDS011;50121;51.218;7.664;2024-03-29T10:12:41;4.20;;;3.90;;
63943;SDS011;50121;51.218;7.664;2024-03-29T10:15:07;4.30;;;4.00;;
63943;SDS011;50121;51.218;7.664;2024-03-29T10:17:35;4.10;;;3.80;;
63943;SDS011;50121;51.218;7.664;2024-03-29T10:20:04;3.80;;;3.60;;
63943;SDS011;50121;51.218;7.664;2024-03-29T10:22:44;4.00;;;3.70;;
63943;SDS011;50121;51.218;7.664;2024-03-29T10:25:12;4.20;;;3.50;;
63943;SDS011;50121;51.218;7.664;2024-03-29T10:27:40;3.90;;;3.60;;
63943;SDS011;50121;51.218;7.664;2024-03-29T10:30:08;3.70;;;3.50;;
63943;SDS011;50121;51.218;7.664;2024-03-29T10:32:37;3.90;;;3.70;;
63943;SDS011;50121;51.218;7.664;2024-03-29T10:35:08;4.22;;;3.90;;
63943;SDS011;50121;51.218;7.664;2024-03-29T10:37:36;3.92;;;3.60;;
63943;SDS011;50121;51.218;7.664;2024-03-29T10:40:09;3.60;;;3.40;;
63943;SDS011;50121;51.218;7.664;2024-03-29T10:42:39;3.83;;;3.63;;
63943;SDS011;50121;51.218;7.664;2024-03-29T10:45:07;3.75;;;3.55;;
63943;SDS011;50121;51.218;7.664;2024-03-29T10:47:34;3.83;;;3.60;;
63943;SDS011;50121;51.218;7.664;2024-03-29T10:50:02;6.85;;;4.90;;
63943;SDS011;50121;51.218;7.664;2024-03-29T10:52:31;4.00;;;3.70;;
63943;SDS011;50121;51.218;7.664;2024-03-29T10:54:59;4.07;;;3.78;;
63943;SDS011;50121;51.218;7.664;2024-03-29T10:57:26;4.03;;;3.83;;
63943;SDS011;50121;51.218;7.664;2024-03-29T11:00:03;4.40;;;4.10;;
63943;SDS011;50121;51.218;7.664;2024-03-29T11:02:42;4.47;;;4.00;;
63943;SDS011;50121;51.218;7.664;2024-03-29T11:05:12;4.10;;;3.80;;
63943;SDS011;50121;51.218;7.664;2024-03-29T11:07:39;4.30;;;4.00;;
63943;SDS011;50121;51.218;7.664;2024-03-29T11:10:15;4.00;;;3.80;;
63943;SDS011;50121;51.218;7.664;2024-03-29T11:12:47;4.10;;;3.90;;
63943;SDS011;50121;51.218;7.664;2024-03-29T11:15:16;4.10;;;3.80;;
63943;SDS011;50121;51.218;7.664;2024-03-29T11:17:46;4.40;;;3.88;;
63943;SDS011;50121;51.218;7.664;2024-03-29T11:20:13;4.00;;;3.80;;
63943;SDS011;50121;51.218;7.664;2024-03-29T11:22:44;7.90;;;7.15;;
63943;SDS011;50121;51.218;7.664;2024-03-29T11:25:12;4.70;;;4.40;;
63943;SDS011;50121;51.218;7.664;2024-03-29T11:27:39;4.55;;;4.25;;
63943;SDS011;50121;51.218;7.664;2024-03-29T11:30:06;4.85;;;4.45;;
63943;SDS011;50121;51.218;7.664;2024-03-29T11:32:37;4.80;;;4.40;;
63943;SDS011;50121;51.218;7.664;2024-03-29T11:35:05;4.60;;;4.30;;
63943;SDS011;50121;51.218;7.664;2024-03-29T11:37:32;4.85;;;4.40;;
63943;SDS011;50121;51.218;7.664;2024-03-29T11:39:59;4.20;;;3.90;;
63943;SDS011;50121;51.218;7.664;2024-03-29T11:42:36;4.57;;;4.28;;
63943;SDS011;50121;51.218;7.664;2024-03-29T11:45:04;4.82;;;4.50;;
63943;SDS011;50121;51.218;7.664;2024-03-29T11:47:33;4.90;;;4.60;;
63943;SDS011;50121;51.218;7.664;2024-03-29T11:50:00;5.43;;;4.88;;
63943;SDS011;50121;51.218;7.664;2024-03-29T11:52:27;4.55;;;4.32;;
63943;SDS011;50121;51.218;7.664;2024-03-29T11:54:54;4.40;;;4.10;;
63943;SDS011;50121;51.218;7.664;2024-03-29T11:57:21;5.10;;;4.70;;
63943;SDS011;50121;51.218;7.664;2024-03-29T11:59:50;4.90;;;4.50;;
63943;SDS011;50121;51.218;7.664;2024-03-29T12:02:17;4.60;;;4.30;;
63943;SDS011;50121;51.218;7.664;2024-03-29T12:04:44;4.70;;;4.30;;
63943;SDS011;50121;51.218;7.664;2024-03-29T12:07:11;5.13;;;4.80;;
63943;SDS011;50121;51.218;7.664;2024-03-29T12:09:38;5.65;;;5.25;;
63943;SDS011;50121;51.218;7.664;2024-03-29T12:12:05;5.20;;;4.80;;
63943;SDS011;50121;51.218;7.664;2024-03-29T12:14:38;5.20;;;4.70;;
63943;SDS011;50121;51.218;7.664;2024-03-29T12:17:09;4.88;;;4.57;;
63943;SDS011;50121;51.218;7.664;2024-03-29T12:19:36;4.95;;;4.57;;
63943;SDS011;50121;51.218;7.664;2024-03-29T12:22:06;4.80;;;4.50;;
63943;SDS011;50121;51.218;7.664;2024-03-29T12:24:35;4.75;;;4.45;;
63943;SDS011;50121;51.218;7.664;2024-03-29T12:27:07;4.50;;;4.20;;
63943;SDS011;50121;51.218;7.664;2024-03-29T12:29:35;4.90;;;4.60;;
63943;SDS011;50121;51.218;7.664;2024-03-29T12:32:02;5.05;;;4.70;;
63943;SDS011;50121;51.218;7.664;2024-03-29T12:34:30;4.47;;;4.10;;
63943;SDS011;50121;51.218;7.664;2024-03-29T12:36:57;4.80;;;4.50;;
63943;SDS011;50121;51.218;7.664;2024-03-29T12:39:25;4.78;;;4.47;;
63943;SDS011;50121;51.218;7.664;2024-03-29T12:41:53;4.75;;;4.45;;
63943;SDS011;50121;51.218;7.664;2024-03-29T12:44:25;6.03;;;5.50;;
63943;SDS011;50121;51.218;7.664;2024-03-29T12:46:52;4.68;;;4.30;;
63943;SDS011;50121;51.218;7.664;2024-03-29T12:49:19;4.75;;;4.35;;
63943;SDS011;50121;51.218;7.664;2024-03-29T12:51:46;4.82;;;4.53;;
63943;SDS011;50121;51.218;7.664;2024-03-29T12:54:13;3.55;;;3.33;;
63943;SDS011;50121;51.218;7.664;2024-03-29T12:56:40;4.38;;;3.95;;
63943;SDS011;50121;51.218;7.664;2024-03-29T12:59:07;3.45;;;3.25;;
63943;SDS011;50121;51.218;7.664;2024-03-29T13:01:34;4.32;;;4.03;;
63943;SDS011;50121;51.218;7.664;2024-03-29T13:04:01;4.95;;;4.55;;
63943;SDS011;50121;51.218;7.664;2024-03-29T13:06:29;5.07;;;4.57;;
63943;SDS011;50121;51.218;7.664;2024-03-29T13:08:56;4.78;;;4.47;;
63943;SDS011;50121;51.218;7.664;2024-03-29T13:11:23;4.70;;;4.30;;
63943;SDS011;50121;51.218;7.664;2024-03-29T13:13:51;4.80;;;4.40;;
63943;SDS011;50121;51.218;7.664;2024-03-29T13:16:18;4.70;;;4.40;;
63943;SDS011;50121;51.218;7.664;2024-03-29T13:18:45;5.18;;;4.72;;
63943;SDS011;50121;51.218;7.664;2024-03-29T13:21:12;5.20;;;4.70;;
63943;SDS011;50121;51.218;7.664;2024-03-29T13:23:39;4.70;;;4.40;;
63943;SDS011;50121;51.218;7.664;2024-03-29T13:26:06;4.93;;;4.60;;
63943;SDS011;50121;51.218;7.664;2024-03-29T13:28:32;4.70;;;4.40;;
63943;SDS011;50121;51.218;7.664;2024-03-29T13:30:59;5.45;;;4.68;;
63943;SDS011;50121;51.218;7.664;2024-03-29T13:33:26;4.55;;;4.25;;
63943;SDS011;50121;51.218;7.664;2024-03-29T13:35:54;4.88;;;4.47;;
63943;SDS011;50121;51.218;7.664;2024-03-29T13:38:22;4.57;;;4.22;;
63943;SDS011;50121;51.218;7.664;2024-03-29T13:40:52;4.93;;;4.53;;
63943;SDS011;50121;51.218;7.664;2024-03-29T13:43:19;4.70;;;4.38;;
63943;SDS011;50121;51.218;7.664;2024-03-29T13:45:48;4.70;;;4.40;;
63943;SDS011;50121;51.218;7.664;2024-03-29T13:48:16;4.90;;;4.50;;
63943;SDS011;50121;51.218;7.664;2024-03-29T13:50:43;4.90;;;4.60;;
63943;SDS011;50121;51.218;7.664;2024-03-29T13:53:10;5.00;;;4.60;;
63943;SDS011;50121;51.218;7.664;2024-03-29T13:55:39;4.85;;;4.45;;
63943;SDS011;50121;51.218;7.664;2024-03-29T13:58:06;4.80;;;4.50;;
63943;SDS011;50121;51.218;7.664;2024-03-29T14:00:33;5.30;;;4.97;;
63943;SDS011;50121;51.218;7.664;2024-03-29T14:02:59;5.10;;;4.80;;
63943;SDS011;50121;51.218;7.664;2024-03-29T14:05:27;4.88;;;4.57;;
63943;SDS011;50121;51.218;7.664;2024-03-29T14:07:54;5.10;;;4.70;;
63943;SDS011;50121;51.218;7.664;2024-03-29T14:10:21;5.15;;;4.85;;
63943;SDS011;50121;51.218;7.664;2024-03-29T14:12:48;6.13;;;5.72;;
63943;SDS011;50121;51.218;7.664;2024-03-29T14:15:17;5.20;;;4.90;;
63943;SDS011;50121;51.218;7.664;2024-03-29T14:17:44;5.30;;;5.00;;
63943;SDS011;50121;51.218;7.664;2024-03-29T14:20:12;5.60;;;5.10;;
63943;SDS011;50121;51.218;7.664;2024-03-29T14:22:38;5.28;;;4.88;;
63943;SDS011;50121;51.218;7.664;2024-03-29T14:25:06;5.47;;;4.97;;
63943;SDS011;50121;51.218;7.664;2024-03-29T14:27:37;4.90;;;4.60;;
63943;SDS011;50121;51.218;7.664;2024-03-29T14:30:12;5.30;;;4.97;;
63943;SDS011;50121;51.218;7.664;2024-03-29T14:32:44;5.25;;;4.85;;
63943;SDS011;50121;51.218;7.664;2024-03-29T14:35:13;5.60;;;5.25;;
63943;SDS011;50121;51.218;7.664;2024-03-29T14:37:40;5.65;;;5.25;;
63943;SDS011;50121;51.218;7.664;2024-03-29T14:40:07;5.70;;;5.20;;
63943;SDS011;50121;51.218;7.664;2024-03-29T14:42:34;5.80;;;5.30;;
63943;SDS011;50121;51.218;7.664;2024-03-29T14:45:03;5.55;;;5.15;;
63943;SDS011;50121;51.218;7.664;2024-03-29T14:47:30;5.72;;;5.28;;
63943;SDS011;50121;51.218;7.664;2024-03-29T14:50:01;5.18;;;4.70;;